Time;durP1;ratioP1;P1;durP2;ratioP2;P2;SDS_P1;SDS_P2;PMS_P1;PMS_P2;Temp;Humidity;BMP_temperature;BMP_pressure;BME280_temperature;BME280_humidity;BME280_pressure;Samples;Min_cycle;Max_cycle;Signal;HPM_P1;HPM_P2
2021/07/23 00:02:12;;;;;;;0.00;0.00;;;23.50;64.10;;;;;;4207592;28;20047;-47
2021/07/23 00:04:36;;;;;;;0.00;0.00;;;23.50;64.20;;;;;;4207330;28;20508;-49
2021/07/23 00:06:58;;;;;;;0.45;0.45;;;23.40;64.20;;;;;;4207742;28;20128;-45
2021/07/23 00:09:20;;;;;;;0.20;0.20;;;23.50;64.30;;;;;;4207629;28;20498;-51
2021/07/23 00:11:42;;;;;;;0.00;0.00;;;23.40;64.20;;;;;;4207458;28;20044;-48
2021/07/23 00:14:05;;;;;;;0.28;0.28;;;23.50;64.40;;;;;;4207218;27;20062;-52
2021/07/23 00:16:27;;;;;;;0.15;0.15;;;23.40;64.30;;;;;;4190885;28;20055;-52
2021/07/23 00:18:49;;;;;;;0.10;0.10;;;23.40;64.40;;;;;;4206274;28;20059;-49
2021/07/23 00:21:13;;;;;;;0.00;0.00;;;23.40;64.50;;;;;;4205381;27;20131;-48
2021/07/23 00:23:34;;;;;;;1.08;0.88;;;23.40;64.50;;;;;;4207388;28;20105;-50
2021/07/23 00:25:56;;;;;;;0.00;0.00;;;23.40;64.50;;;;;;4190762;28;20048;-48
2021/07/23 00:28:19;;;;;;;0.10;0.10;;;23.40;64.60;;;;;;4191469;28;20071;-50
2021/07/23 00:30:41;;;;;;;0.10;0.10;;;23.40;64.60;;;;;;4201675;28;20066;-57
2021/07/23 00:33:05;;;;;;;0.10;0.10;;;23.40;64.70;;;;;;4205744;28;20044;-48
2021/07/23 00:35:28;;;;;;;0.00;0.00;;;23.40;64.70;;;;;;4206072;28;20059;-46
2021/07/23 00:37:51;;;;;;;1.00;1.00;;;23.40;65.70;;;;;;4203920;28;20051;-50
2021/07/23 00:40:14;;;;;;;0.10;0.10;;;23.40;64.80;;;;;;4205454;28;20453;-52
2021/07/23 00:42:37;;;;;;;0.75;0.75;;;23.40;65.00;;;;;;4206111;28;20043;-51
2021/07/23 00:44:59;;;;;;;0.00;0.00;;;23.40;65.00;;;;;;4207244;28;20040;-48
2021/07/23 00:47:21;;;;;;;0.03;0.03;;;23.40;65.00;;;;;;4207811;28;20060;-48
2021/07/23 00:49:44;;;;;;;0.00;0.00;;;23.40;65.00;;;;;;4206093;28;20052;-48
2021/07/23 00:52:07;;;;;;;0.10;0.10;;;23.40;65.10;;;;;;4207386;28;20058;-46
2021/07/23 00:54:31;;;;;;;0.00;0.00;;;23.40;65.10;;;;;;4207163;28;20101;-53
2021/07/23 00:56:54;;;;;;;0.00;0.00;;;23.40;65.10;;;;;;4207395;28;20044;-47
2021/07/23 00:59:17;;;;;;;0.30;0.30;;;23.40;65.20;;;;;;4207100;28;20051;-50
2021/07/23 01:01:40;;;;;;;0.00;0.00;;;23.40;65.30;;;;;;4210187;28;20667;-53
2021/07/23 01:04:03;;;;;;;0.00;0.00;;;23.40;65.20;;;;;;4210434;28;20047;-50
2021/07/23 01:06:28;;;;;;;0.05;0.05;;;23.40;65.30;;;;;;4210730;28;20058;-49
2021/07/23 01:08:50;;;;;;;0.00;0.00;;;23.40;65.30;;;;;;4208951;28;20603;-48
2021/07/23 01:11:16;;;;;;;0.00;0.00;;;23.40;65.40;;;;;;4208375;28;20110;-48
2021/07/23 01:13:49;;;;;;;0.10;0.10;;;23.30;65.30;;;;;;4208230;28;20051;-45
2021/07/23 01:16:13;;;;;;;0.00;0.00;;;23.40;65.60;;;;;;4208682;28;20564;-48
2021/07/23 01:18:36;;;;;;;3.63;0.85;;;23.40;65.60;;;;;;4209332;28;20054;-47
2021/07/23 01:20:59;;;;;;;0.00;0.00;;;23.40;65.60;;;;;;4193830;28;20044;-46
2021/07/23 01:23:29;;;;;;;2.03;0.95;;;23.40;65.60;;;;;;4210280;28;20052;-46
2021/07/23 01:25:53;;;;;;;0.00;0.00;;;23.40;65.60;;;;;;4208190;28;20146;-47
2021/07/23 01:28:17;;;;;;;0.00;0.00;;;23.40;65.70;;;;;;4214824;27;20046;-48
2021/07/23 01:30:39;;;;;;;0.00;0.00;;;23.40;65.90;;;;;;4209858;28;20044;-47
2021/07/23 01:33:07;;;;;;;0.00;0.00;;;23.30;65.60;;;;;;4208278;28;20410;-47
2021/07/23 01:35:31;;;;;;;0.10;0.10;;;23.30;65.60;;;;;;4209953;28;20048;-45
2021/07/23 01:37:57;;;;;;;0.00;0.00;;;23.30;66.60;;;;;;4208314;27;20142;-48
2021/07/23 01:40:20;;;;;;;0.00;0.00;;;23.30;65.80;;;;;;4209894;28;20056;-49
2021/07/23 01:42:44;;;;;;;4.57;1.17;;;23.30;65.90;;;;;;4207839;28;20051;-46
2021/07/23 01:45:07;;;;;;;0.00;0.00;;;23.30;66.00;;;;;;4208332;28;20052;-48
2021/07/23 01:47:29;;;;;;;0.30;0.30;;;23.30;66.10;;;;;;4208386;28;20063;-49
2021/07/23 01:49:52;;;;;;;0.00;0.00;;;23.30;66.10;;;;;;4208084;28;20044;-47
2021/07/23 01:52:15;;;;;;;0.00;0.00;;;23.30;66.20;;;;;;4209805;28;20135;-52
2021/07/23 01:54:41;;;;;;;0.00;0.00;;;23.30;66.30;;;;;;4207714;28;20102;-49
2021/07/23 01:57:07;;;;;;;0.00;0.00;;;23.20;66.40;;;;;;4209637;28;20394;-51
2021/07/23 01:59:31;;;;;;;0.20;0.20;;;23.20;67.20;;;;;;4208291;28;20097;-53
2021/07/23 02:01:56;;;;;;;0.00;0.00;;;23.20;66.40;;;;;;4208174;28;20097;-48
2021/07/23 02:04:33;;;;;;;5.60;1.55;;;23.20;66.50;;;;;;4205146;28;20482;-48
2021/07/23 02:06:57;;;;;;;0.65;0.20;;;23.20;66.60;;;;;;4209376;28;20070;-47
2021/07/23 02:09:19;;;;;;;0.00;0.00;;;23.20;66.70;;;;;;4207948;27;20059;-47
2021/07/23 02:11:48;;;;;;;0.38;0.38;;;23.20;66.70;;;;;;4208044;28;20059;-50
2021/07/23 02:14:13;;;;;;;0.00;0.00;;;23.20;66.80;;;;;;4207681;28;20525;-47
2021/07/23 02:16:37;;;;;;;1.08;0.52;;;23.20;66.80;;;;;;4190962;28;20126;-49
2021/07/23 02:19:00;;;;;;;0.00;0.00;;;23.10;66.80;;;;;;4196524;27;20164;-47
2021/07/23 02:21:43;;;;;;;0.32;0.32;;;23.10;66.80;;;;;;4207740;28;20097;-50
2021/07/23 02:24:06;;;;;;;0.00;0.00;;;23.10;66.80;;;;;;4209277;28;20047;-49
2021/07/23 02:26:28;;;;;;;0.00;0.00;;;23.10;66.90;;;;;;4206980;28;20464;-53
2021/07/23 02:28:51;;;;;;;0.00;0.00;;;23.10;66.90;;;;;;4207533;28;20055;-51
2021/07/23 02:31:16;;;;;;;0.30;0.30;;;23.20;66.90;;;;;;4192444;28;20068;-50
2021/07/23 02:33:50;;;;;;;0.00;0.00;;;23.10;66.90;;;;;;4190603;28;20859;-50
2021/07/23 02:36:22;;;;;;;0.00;0.00;;;23.10;66.90;;;;;;4191831;28;20059;-46
2021/07/23 02:38:45;;;;;;;0.08;0.08;;;23.10;66.90;;;;;;4190440;28;20048;-48
2021/07/23 02:41:10;;;;;;;0.17;0.17;;;23.10;66.90;;;;;;4190689;28;20048;-49
2021/07/23 02:43:33;;;;;;;0.20;0.20;;;23.10;67.00;;;;;;4196049;28;20534;-50
2021/07/23 02:45:59;;;;;;;0.00;0.00;;;23.10;67.00;;;;;;4175373;28;20045;-48
2021/07/23 02:48:23;;;;;;;0.20;0.20;;;23.10;67.00;;;;;;4178279;28;20063;-51
2021/07/23 02:50:45;;;;;;;0.70;0.43;;;23.10;67.10;;;;;;4177684;28;20053;-50
2021/07/23 02:53:08;;;;;;;0.43;0.43;;;23.10;67.10;;;;;;4191800;28;20135;-47
2021/07/23 02:55:31;;;;;;;0.00;0.00;;;23.10;67.10;;;;;;4190436;28;20087;-52
2021/07/23 02:57:53;;;;;;;0.00;0.00;;;23.10;67.10;;;;;;4192108;28;20047;-53
2021/07/23 03:00:19;;;;;;;0.17;0.17;;;23.10;67.10;;;;;;4188612;28;20554;-48
2021/07/23 03:02:44;;;;;;;0.10;0.10;;;23.10;67.10;;;;;;4174023;28;20076;-46
2021/07/23 03:05:09;;;;;;;0.68;0.32;;;23.10;67.10;;;;;;4173291;28;20546;-48
2021/07/23 03:07:34;;;;;;;0.22;0.22;;;23.10;67.10;;;;;;4175331;28;20045;-50
2021/07/23 03:09:56;;;;;;;1.23;0.35;;;23.10;67.10;;;;;;4199813;28;20147;-46
2021/07/23 03:12:18;;;;;;;0.00;0.00;;;23.10;67.10;;;;;;4208697;28;20105;-46
2021/07/23 03:14:46;;;;;;;0.00;0.00;;;23.10;68.20;;;;;;4206555;28;20505;-46
2021/07/23 03:17:18;;;;;;;0.00;0.00;;;23.10;67.10;;;;;;4189756;28;20455;-48
2021/07/23 03:19:41;;;;;;;0.00;0.00;;;23.10;67.10;;;;;;4206824;28;20048;-49
2021/07/23 03:22:06;;;;;;;3.60;0.90;;;23.10;67.20;;;;;;4207856;28;20052;-50
2021/07/23 03:24:33;;;;;;;0.75;0.38;;;23.10;67.20;;;;;;4206589;28;20039;-48
2021/07/23 03:26:57;;;;;;;0.35;0.28;;;23.10;67.20;;;;;;4206736;28;20055;-49
2021/07/23 03:29:20;;;;;;;0.00;0.00;;;23.10;67.20;;;;;;4207475;27;20051;-49
2021/07/23 03:31:43;;;;;;;0.00;0.00;;;23.10;67.20;;;;;;4206741;28;20051;-50
2021/07/23 03:34:11;;;;;;;0.05;0.05;;;23.10;67.20;;;;;;4206200;28;20071;-46
2021/07/23 03:36:50;;;;;;;0.17;0.17;;;23.10;67.20;;;;;;4206385;28;20121;-49
2021/07/23 03:39:19;;;;;;;0.28;0.28;;;23.10;67.30;;;;;;4206082;28;20081;-51
2021/07/23 03:41:42;;;;;;;0.30;0.30;;;23.10;68.20;;;;;;4206711;28;20174;-50
2021/07/23 03:44:13;;;;;;;0.35;0.35;;;23.10;67.30;;;;;;4205568;28;20201;-50
2021/07/23 03:46:35;;;;;;;0.38;0.38;;;23.10;67.30;;;;;;4206552;28;20056;-50
2021/07/23 03:48:58;;;;;;;0.05;0.05;;;23.00;67.30;;;;;;4205893;27;20463;-48
2021/07/23 03:51:41;;;;;;;0.00;0.00;;;23.10;67.30;;;;;;4207976;27;20054;-46
2021/07/23 03:54:04;;;;;;;0.00;0.00;;;23.00;67.30;;;;;;4193913;27;20055;-49
2021/07/23 03:56:28;;;;;;;0.35;0.35;;;23.00;67.30;;;;;;4206828;28;20180;-49
2021/07/23 03:58:52;;;;;;;0.35;0.35;;;23.00;67.30;;;;;;4207066;27;20394;-51
2021/07/23 04:01:24;;;;;;;0.00;0.00;;;23.00;67.40;;;;;;4206659;28;20063;-49
2021/07/23 04:03:50;;;;;;;0.40;0.25;;;23.00;67.40;;;;;;4206394;28;20125;-52
2021/07/23 04:06:13;;;;;;;0.00;0.00;;;23.00;67.50;;;;;;4207938;28;20198;-53
2021/07/23 04:08:35;;;;;;;0.00;0.00;;;23.00;67.50;;;;;;4206017;28;20071;-48
2021/07/23 04:10:57;;;;;;;0.57;0.52;;;23.00;67.60;;;;;;4207545;27;20662;-50
2021/07/23 04:13:27;;;;;;;0.20;0.20;;;23.00;68.40;;;;;;4205593;27;20040;-52
2021/07/23 04:15:50;;;;;;;0.00;0.00;;;23.00;67.60;;;;;;4206444;28;20063;-48
2021/07/23 04:18:13;;;;;;;0.38;0.38;;;23.00;67.60;;;;;;4207411;28;20055;-51
2021/07/23 04:20:46;;;;;;;0.03;0.03;;;23.00;67.60;;;;;;4205912;28;20537;-51
2021/07/23 04:23:09;;;;;;;0.15;0.15;;;23.00;67.70;;;;;;4206082;28;20198;-49
2021/07/23 04:25:31;;;;;;;0.00;0.00;;;23.00;67.70;;;;;;4206157;28;20094;-47
2021/07/23 04:27:55;;;;;;;0.10;0.10;;;23.00;67.70;;;;;;4207452;28;20040;-47
2021/07/23 04:30:28;;;;;;;0.52;0.52;;;23.00;67.80;;;;;;4193345;28;20096;-47
2021/07/23 04:33:14;;;;;;;0.43;0.43;;;22.90;67.70;;;;;;4207245;28;20114;-50
2021/07/23 04:35:59;;;;;;;0.10;0.10;;;22.90;67.70;;;;;;4209263;28;20055;-48
2021/07/23 04:38:21;;;;;;;0.20;0.20;;;22.90;67.70;;;;;;4210793;28;20064;-47
2021/07/23 04:40:46;;;;;;;0.10;0.10;;;22.90;68.60;;;;;;4208868;28;20846;-51
2021/07/23 04:43:18;;;;;;;0.10;0.10;;;22.90;67.70;;;;;;4206375;28;20574;-49
2021/07/23 04:45:42;;;;;;;0.15;0.15;;;22.90;67.70;;;;;;4209350;28;20135;-53
2021/07/23 04:48:05;;;;;;;0.52;0.52;;;22.90;67.70;;;;;;4209143;28;20067;-48
2021/07/23 04:50:48;;;;;;;0.45;0.45;;;23.00;67.80;;;;;;4192146;28;20044;-52
2021/07/23 04:53:29;;;;;;;0.50;0.50;;;22.90;67.70;;;;;;4193518;28;20052;-52
2021/07/23 04:56:16;;;;;;;0.00;0.00;;;22.90;67.70;;;;;;4193754;28;20127;-46
2021/07/23 04:58:39;;;;;;;0.00;0.00;;;22.90;67.70;;;;;;4207588;28;20419;-47
2021/07/23 05:01:02;;;;;;;0.00;0.00;;;22.90;67.70;;;;;;4210355;28;20055;-48
2021/07/23 05:03:29;;;;;;;0.10;0.10;;;22.90;67.80;;;;;;4210308;28;20094;-47
2021/07/23 05:05:51;;;;;;;0.13;0.13;;;22.90;67.80;;;;;;4210457;28;20051;-56
2021/07/23 05:08:15;;;;;;;0.40;0.32;;;22.90;67.70;;;;;;4210146;28;20125;-50
2021/07/23 05:10:40;;;;;;;0.47;0.47;;;22.90;67.80;;;;;;4208970;27;20493;-49
2021/07/23 05:13:02;;;;;;;0.30;0.30;;;23.00;67.90;;;;;;4187875;28;20048;-48
2021/07/23 05:15:24;;;;;;;0.90;0.90;;;22.90;68.00;;;;;;4193596;28;20056;-50
2021/07/23 05:17:48;;;;;;;0.30;0.30;;;22.90;68.10;;;;;;4208428;28;20052;-47
2021/07/23 05:20:10;;;;;;;1.27;0.57;;;22.90;68.10;;;;;;4209137;28;20051;-50
2021/07/23 05:22:33;;;;;;;0.10;0.10;;;23.00;68.20;;;;;;4210133;28;20094;-52
2021/07/23 05:24:57;;;;;;;0.10;0.10;;;23.00;68.20;;;;;;4210195;28;20067;-48
2021/07/23 05:27:19;;;;;;;0.05;0.05;;;23.00;69.60;;;;;;4209738;28;20500;-50
2021/07/23 05:29:42;;;;;;;0.30;0.30;;;23.00;68.60;;;;;;4209342;28;20056;-52
2021/07/23 05:32:05;;;;;;;0.00;0.00;;;23.00;68.30;;;;;;4208292;28;20063;-50
2021/07/23 05:34:28;;;;;;;0.88;0.88;;;23.00;68.10;;;;;;4208971;28;20061;-47
2021/07/23 05:36:51;;;;;;;0.00;0.00;;;23.00;68.00;;;;;;4210158;28;20459;-48
2021/07/23 05:39:13;;;;;;;0.65;0.65;;;23.00;67.90;;;;;;4209977;28;20090;-48
2021/07/23 05:41:35;;;;;;;0.00;0.00;;;23.00;67.90;;;;;;4209522;27;20471;-48
2021/07/23 05:43:58;;;;;;;0.75;0.75;;;23.00;67.90;;;;;;4192533;28;20060;-46
2021/07/23 05:46:20;;;;;;;0.10;0.10;;;23.00;67.90;;;;;;4209866;28;20522;-48
2021/07/23 05:48:42;;;;;;;0.00;0.00;;;22.90;67.80;;;;;;4192851;28;20056;-49
2021/07/23 05:51:08;;;;;;;0.43;0.43;;;23.00;67.90;;;;;;4192124;28;20049;-48
2021/07/23 05:53:30;;;;;;;1.35;0.60;;;22.90;67.70;;;;;;4192853;28;20060;-47
2021/07/23 05:55:51;;;;;;;0.00;0.00;;;22.90;67.70;;;;;;4192763;28;20131;-47
2021/07/23 05:58:14;;;;;;;0.30;0.30;;;22.90;67.70;;;;;;4193229;28;20055;-48
2021/07/23 06:00:36;;;;;;;0.17;0.17;;;22.90;67.70;;;;;;4206970;28;20458;-47
2021/07/23 06:03:03;;;;;;;0.10;0.10;;;22.90;67.70;;;;;;4209382;28;20050;-48
2021/07/23 06:05:25;;;;;;;0.65;0.65;;;22.90;67.70;;;;;;4208389;28;20101;-56
2021/07/23 06:07:48;;;;;;;0.65;0.65;;;22.90;67.70;;;;;;4192521;28;20495;-48
2021/07/23 06:10:11;;;;;;;0.70;0.70;;;22.90;67.70;;;;;;4197268;28;20149;-51
2021/07/23 06:12:33;;;;;;;0.10;0.10;;;22.90;67.70;;;;;;4207645;28;20486;-48
2021/07/23 06:14:56;;;;;;;0.00;0.00;;;22.90;67.70;;;;;;4199559;28;20048;-45
2021/07/23 06:17:18;;;;;;;0.47;0.45;;;22.90;67.70;;;;;;4209167;28;20480;-47
2021/07/23 06:19:41;;;;;;;0.00;0.00;;;22.90;67.70;;;;;;4209288;28;20065;-49
2021/07/23 06:22:04;;;;;;;0.15;0.15;;;22.90;67.60;;;;;;4206250;28;20048;-47
2021/07/23 06:24:27;;;;;;;0.00;0.00;;;22.90;67.70;;;;;;4192215;28;20491;-47
2021/07/23 06:26:49;;;;;;;0.20;0.20;;;22.90;67.60;;;;;;4192503;28;20048;-46
2021/07/23 06:29:11;;;;;;;0.00;0.00;;;22.90;68.50;;;;;;4207917;28;20052;-50
2021/07/23 06:31:34;;;;;;;0.10;0.10;;;22.90;67.60;;;;;;4208568;28;20121;-49
2021/07/23 06:33:58;;;;;;;0.03;0.03;;;22.90;67.60;;;;;;4208922;28;20046;-48
2021/07/23 06:36:20;;;;;;;0.00;0.00;;;22.90;68.40;;;;;;4192300;28;20078;-51
2021/07/23 06:38:42;;;;;;;0.17;0.17;;;22.90;67.60;;;;;;4192074;28;20045;-52
2021/07/23 06:41:07;;;;;;;0.25;0.25;;;22.90;67.60;;;;;;4191826;28;20535;-49
2021/07/23 06:43:29;;;;;;;0.28;0.28;;;22.90;67.70;;;;;;4191443;28;20511;-49
2021/07/23 06:45:52;;;;;;;0.28;0.28;;;22.90;67.60;;;;;;4190602;28;20048;-48
2021/07/23 06:48:14;;;;;;;0.52;0.47;;;22.90;69.60;;;;;;4191851;28;20056;-55
2021/07/23 06:50:36;;;;;;;0.57;0.45;;;22.90;77.00;;;;;;4192141;28;20059;-50
2021/07/23 06:52:58;;;;;;;6.43;2.28;;;22.90;78.30;;;;;;4191631;28;20040;-49
2021/07/23 06:55:20;;;;;;;0.00;0.00;;;22.90;78.10;;;;;;4191745;28;20056;-49
2021/07/23 06:57:44;;;;;;;1.85;1.75;;;22.90;77.70;;;;;;4189587;28;20509;-49
2021/07/23 07:00:07;;;;;;;0.45;0.45;;;22.90;77.60;;;;;;4192226;28;20059;-47
2021/07/23 07:02:30;;;;;;;0.60;0.60;;;22.90;77.10;;;;;;4207541;28;20414;-51
2021/07/23 07:04:52;;;;;;;0.00;0.00;;;22.90;76.20;;;;;;4191681;28;20063;-50
2021/07/23 07:07:16;;;;;;;0.75;0.75;;;22.90;74.30;;;;;;4197937;28;20105;-47
2021/07/23 07:09:39;;;;;;;0.38;0.38;;;22.90;73.90;;;;;;4206735;28;20055;-48
2021/07/23 07:12:01;;;;;;;0.13;0.13;;;22.80;73.60;;;;;;4207716;28;20093;-47
2021/07/23 07:14:26;;;;;;;0.10;0.10;;;22.80;73.40;;;;;;4208066;28;20051;-50
2021/07/23 07:16:48;;;;;;;0.10;0.10;;;22.80;72.60;;;;;;4208385;28;20389;-52
2021/07/23 07:19:10;;;;;;;0.28;0.28;;;22.80;72.60;;;;;;4191433;28;20048;-46
2021/07/23 07:21:31;;;;;;;0.38;0.20;;;22.80;72.00;;;;;;4191265;28;20051;-49
2021/07/23 07:23:54;;;;;;;0.17;0.17;;;22.80;71.70;;;;;;4190609;28;20093;-54
2021/07/23 07:26:16;;;;;;;0.65;0.65;;;22.80;71.70;;;;;;4175045;28;20048;-50
2021/07/23 07:28:39;;;;;;;5.78;1.75;;;22.80;71.30;;;;;;4174830;28;20147;-47
2021/07/23 07:31:02;;;;;;;0.55;0.55;;;22.80;71.60;;;;;;4190156;28;20039;-49
2021/07/23 07:33:25;;;;;;;0.40;0.40;;;22.80;71.20;;;;;;4193289;28;20056;-49
2021/07/23 07:35:46;;;;;;;0.15;0.15;;;22.80;71.10;;;;;;4191101;28;20044;-52
2021/07/23 07:38:08;;;;;;;0.20;0.20;;;22.80;71.10;;;;;;4190688;28;20067;-50
2021/07/23 07:40:30;;;;;;;0.00;0.00;;;22.80;71.10;;;;;;4191338;28;20494;-47
2021/07/23 07:42:52;;;;;;;0.50;0.47;;;22.70;71.10;;;;;;4191208;28;20143;-48
2021/07/23 07:45:14;;;;;;;0.10;0.10;;;22.70;70.80;;;;;;4192518;28;20091;-48
2021/07/23 07:47:38;;;;;;;0.00;0.00;;;22.70;70.80;;;;;;4207707;28;20482;-48
2021/07/23 07:50:00;;;;;;;3.15;0.98;;;22.70;70.60;;;;;;4207706;28;20048;-49
2021/07/23 07:52:22;;;;;;;0.00;0.00;;;22.70;70.40;;;;;;4207644;28;20644;-47
2021/07/23 07:54:45;;;;;;;0.00;0.00;;;22.70;70.20;;;;;;4190541;28;20051;-51
2021/07/23 07:57:08;;;;;;;0.22;0.22;;;22.70;70.00;;;;;;4193298;28;20141;-49
2021/07/23 07:59:30;;;;;;;0.10;0.10;;;22.70;69.70;;;;;;4207932;28;20036;-48
2021/07/23 08:01:52;;;;;;;0.90;0.85;;;22.70;70.60;;;;;;4207283;28;20521;-48
2021/07/23 08:04:16;;;;;;;0.40;0.40;;;22.70;69.70;;;;;;4207674;28;20240;-51
2021/07/23 08:06:42;;;;;;;0.57;0.57;;;22.70;69.90;;;;;;4207199;28;20043;-53
2021/07/23 08:09:08;;;;;;;0.43;0.35;;;22.70;69.90;;;;;;4185423;28;20056;-51
2021/07/23 08:11:30;;;;;;;8.25;0.88;;;22.70;70.00;;;;;;4194267;28;20052;-49
2021/07/23 08:13:52;;;;;;;0.00;0.00;;;22.70;69.70;;;;;;4210107;28;20044;-49
2021/07/23 08:16:14;;;;;;;0.90;0.90;;;22.70;69.80;;;;;;4211049;28;20779;-48
2021/07/23 08:18:36;;;;;;;0.57;0.45;;;22.70;69.80;;;;;;4210962;28;20048;-49
2021/07/23 08:21:00;;;;;;;0.00;0.00;;;22.70;69.70;;;;;;4211104;28;20052;-47
2021/07/23 08:23:22;;;;;;;0.25;0.25;;;22.70;69.60;;;;;;4210876;28;20140;-47
2021/07/23 08:25:44;;;;;;;1.00;0.93;;;22.70;69.70;;;;;;4210321;28;20048;-46
2021/07/23 08:28:06;;;;;;;0.00;0.00;;;22.70;69.70;;;;;;4210873;28;20126;-51
2021/07/23 08:30:29;;;;;;;2.20;0.75;;;22.70;69.60;;;;;;4211038;28;20494;-48
2021/07/23 08:32:51;;;;;;;3.65;1.00;;;22.70;69.50;;;;;;4200280;28;20048;-48
2021/07/23 08:35:14;;;;;;;0.15;0.15;;;22.70;70.30;;;;;;4209253;28;20603;-45
2021/07/23 08:37:38;;;;;;;1.73;1.00;;;22.70;69.30;;;;;;4197964;28;20047;-51
2021/07/23 08:40:00;;;;;;;0.20;0.20;;;22.70;69.10;;;;;;4209766;28;20052;-50
2021/07/23 08:42:24;;;;;;;1.85;1.30;;;22.70;69.20;;;;;;4199650;28;20052;-51
2021/07/23 08:44:46;;;;;;;0.17;0.17;;;22.70;69.30;;;;;;4194236;28;20055;-51
2021/07/23 08:47:08;;;;;;;0.20;0.20;;;22.70;70.10;;;;;;4193958;28;20056;-47
2021/07/23 08:49:30;;;;;;;0.20;0.20;;;22.70;69.30;;;;;;4213714;28;20473;-50
2021/07/23 08:51:52;;;;;;;0.10;0.10;;;22.70;69.30;;;;;;4198250;28;20127;-47
2021/07/23 08:54:16;;;;;;;1.27;1.17;;;22.70;69.20;;;;;;4208803;28;20500;-47
2021/07/23 08:56:39;;;;;;;0.28;0.28;;;22.80;69.30;;;;;;4210300;28;20048;-52
2021/07/23 08:59:01;;;;;;;0.03;0.03;;;22.80;69.10;;;;;;4201645;28;20456;-47
2021/07/23 09:01:23;;;;;;;0.00;0.00;;;22.80;68.90;;;;;;4210493;28;20561;-53
2021/07/23 09:03:46;;;;;;;0.20;0.20;;;22.80;69.40;;;;;;4210491;28;20052;-48
2021/07/23 09:06:16;;;;;;;0.15;0.15;;;22.80;69.60;;;;;;4210391;28;20051;-52
2021/07/23 09:08:46;;;;;;;0.00;0.00;;;22.80;69.80;;;;;;4210076;28;20532;-52
2021/07/23 09:11:10;;;;;;;0.00;0.00;;;22.90;70.00;;;;;;4210080;28;20055;-51
2021/07/23 09:13:31;;;;;;;0.10;0.10;;;22.90;69.70;;;;;;4207926;28;20135;-53
2021/07/23 09:15:57;;;;;;;0.52;0.52;;;22.90;69.60;;;;;;4210024;28;20198;-52
2021/07/23 09:18:27;;;;;;;0.10;0.10;;;23.00;69.40;;;;;;4210410;28;20479;-53
2021/07/23 09:20:55;;;;;;;0.50;0.50;;;23.00;69.20;;;;;;4209149;28;20861;-54
2021/07/23 09:23:29;;;;;;;0.10;0.10;;;22.90;69.00;;;;;;4209842;28;20064;-53
2021/07/23 09:25:51;;;;;;;0.03;0.03;;;23.00;68.80;;;;;;4210209;28;20168;-53
2021/07/23 09:28:24;;;;;;;1.08;1.02;;;23.00;68.70;;;;;;4205652;28;20059;-52
2021/07/23 09:30:46;;;;;;;0.60;0.60;;;23.00;69.20;;;;;;4208341;28;20043;-51
2021/07/23 09:33:08;;;;;;;0.10;0.10;;;23.00;69.50;;;;;;4190995;28;20059;-51
2021/07/23 09:35:30;;;;;;;0.30;0.30;;;23.00;69.60;;;;;;4209373;28;20066;-52
2021/07/23 09:37:55;;;;;;;1.83;0.98;;;23.10;69.80;;;;;;4209550;28;20065;-52
2021/07/23 09:40:17;;;;;;;0.00;0.00;;;23.10;69.80;;;;;;4209370;28;20839;-54
2021/07/23 09:42:39;;;;;;;0.20;0.20;;;23.20;69.80;;;;;;4209395;28;20058;-49
2021/07/23 09:45:04;;;;;;;0.20;0.20;;;23.20;69.60;;;;;;4210309;28;20052;-50
2021/07/23 09:47:26;;;;;;;0.05;0.05;;;23.20;69.50;;;;;;4200878;28;20052;-49
2021/07/23 09:49:48;;;;;;;0.00;0.00;;;23.20;69.30;;;;;;4209279;28;20044;-49
2021/07/23 09:52:11;;;;;;;0.10;0.10;;;23.20;69.20;;;;;;4209451;28;20048;-51
2021/07/23 09:54:34;;;;;;;0.82;0.82;;;23.20;69.10;;;;;;4209670;28;20075;-53
2021/07/23 09:56:56;;;;;;;0.28;0.28;;;23.20;69.00;;;;;;4209058;28;20040;-51
2021/07/23 09:59:28;;;;;;;0.00;0.00;;;23.20;69.00;;;;;;4208611;28;20056;-48
2021/07/23 10:01:59;;;;;;;0.00;0.00;;;23.20;68.90;;;;;;4209229;28;20140;-46
2021/07/23 10:04:31;;;;;;;0.47;0.47;;;23.20;69.70;;;;;;4208996;28;20048;-49
2021/07/23 10:07:00;;;;;;;0.35;0.35;;;23.10;68.60;;;;;;4208573;28;20048;-52
2021/07/23 10:09:27;;;;;;;0.00;0.00;;;23.20;68.70;;;;;;4193167;28;20486;-51
2021/07/23 10:11:50;;;;;;;0.40;0.40;;;23.20;68.40;;;;;;4191830;28;20060;-49
2021/07/23 10:14:19;;;;;;;0.20;0.20;;;23.20;68.40;;;;;;4192534;28;20055;-48
2021/07/23 10:16:41;;;;;;;0.08;0.08;;;23.10;68.30;;;;;;4192196;28;20509;-51
2021/07/23 10:19:06;;;;;;;0.00;0.00;;;23.20;68.40;;;;;;4192504;28;20049;-48
2021/07/23 10:21:28;;;;;;;0.40;0.40;;;23.20;68.30;;;;;;4192440;28;20056;-52
2021/07/23 10:23:51;;;;;;;0.00;0.00;;;23.20;68.10;;;;;;4192468;28;20479;-49
2021/07/23 10:26:14;;;;;;;0.00;0.00;;;23.20;68.10;;;;;;4191877;28;20074;-49
2021/07/23 10:28:55;;;;;;;0.13;0.13;;;23.20;68.00;;;;;;4192270;28;20052;-49
2021/07/23 10:31:45;;;;;;;0.00;0.00;;;23.30;67.80;;;;;;4192785;28;20049;-49
2021/07/23 10:34:10;;;;;;;0.40;0.40;;;23.30;67.70;;;;;;4180838;28;20290;-53
2021/07/23 10:36:38;;;;;;;0.00;0.00;;;23.30;67.60;;;;;;4192463;28;20156;-49
2021/07/23 10:39:08;;;;;;;0.25;0.25;;;23.30;67.30;;;;;;4191538;28;20125;-51
2021/07/23 10:41:30;;;;;;;0.10;0.10;;;23.40;68.20;;;;;;4192065;28;20084;-51
2021/07/23 10:43:52;;;;;;;0.57;0.45;;;23.40;67.20;;;;;;4192054;28;20056;-51
2021/07/23 10:46:53;;;;;;;0.00;0.00;;;23.40;67.00;;;;;;4201905;28;20699;-50
2021/07/23 10:49:48;;;;;;;0.20;0.20;;;23.40;66.80;;;;;;4207958;28;20052;-50
2021/07/23 10:52:26;;;;;;;0.20;0.20;;;23.40;66.80;;;;;;4208548;28;20513;-50
2021/07/23 10:55:24;;;;;;;0.30;0.30;;;23.40;66.70;;;;;;4208498;28;20402;-47
2021/07/23 10:58:25;;;;;;;0.30;0.30;;;23.50;66.70;;;;;;4207837;28;20048;-49
2021/07/23 11:00:48;;;;;;;0.50;0.50;;;23.50;66.60;;;;;;4207021;28;20117;-47
2021/07/23 11:03:10;;;;;;;0.00;0.00;;;23.50;66.50;;;;;;4208552;28;20050;-52
2021/07/23 11:05:33;;;;;;;0.00;0.00;;;23.50;66.50;;;;;;4208358;28;20154;-48
2021/07/23 11:07:58;;;;;;;0.17;0.17;;;23.50;66.50;;;;;;4208499;28;20074;-48
2021/07/23 11:10:23;;;;;;;0.10;0.10;;;23.50;66.50;;;;;;4208249;28;20418;-51
2021/07/23 11:12:46;;;;;;;0.00;0.00;;;23.50;66.50;;;;;;4206718;28;20505;-49
2021/07/23 11:15:10;;;;;;;0.28;0.28;;;23.50;66.60;;;;;;4208550;28;20064;-52
2021/07/23 11:17:32;;;;;;;0.32;0.32;;;23.50;67.00;;;;;;4208063;28;20139;-48
2021/07/23 11:19:58;;;;;;;0.00;0.00;;;23.50;67.40;;;;;;4208171;28;20047;-52
2021/07/23 11:22:23;;;;;;;0.15;0.15;;;23.50;67.30;;;;;;4208653;28;20079;-50
2021/07/23 11:24:47;;;;;;;0.00;0.00;;;23.50;67.10;;;;;;4208429;28;20069;-53
2021/07/23 11:27:10;;;;;;;0.00;0.00;;;23.50;67.00;;;;;;4207447;28;20109;-55
2021/07/23 11:29:34;;;;;;;0.20;0.20;;;23.50;66.90;;;;;;4207554;28;20055;-49
2021/07/23 11:32:04;;;;;;;0.10;0.10;;;23.50;66.70;;;;;;4208325;28;20498;-49
2021/07/23 11:34:27;;;;;;;0.10;0.10;;;23.50;66.80;;;;;;4207780;28;20486;-51
2021/07/23 11:36:50;;;;;;;0.00;0.00;;;23.50;67.60;;;;;;4207657;28;20536;-50
2021/07/23 11:39:20;;;;;;;2.92;1.00;;;23.50;66.70;;;;;;4207662;28;20101;-52
2021/07/23 11:41:58;;;;;;;0.00;0.00;;;23.50;66.60;;;;;;4207571;28;20125;-51
2021/07/23 11:44:23;;;;;;;;;;;23.50;66.50;;;;;;4207958;28;20047;-50
2021/07/23 11:46:47;;;;;;;0.10;0.10;;;23.50;66.50;;;;;;4207637;28;19927;-51
2021/07/23 11:49:09;;;;;;;0.10;0.10;;;23.50;66.60;;;;;;4208260;28;20134;-50
2021/07/23 11:51:39;;;;;;;0.20;0.20;;;23.50;66.50;;;;;;4206808;28;20111;-54
2021/07/23 11:54:01;;;;;;;0.10;0.10;;;23.40;66.50;;;;;;4206171;28;20040;-51
2021/07/23 11:56:29;;;;;;;0.30;0.30;;;23.40;66.30;;;;;;4190447;28;20139;-53
2021/07/23 11:58:56;;;;;;;0.22;0.20;;;23.40;66.50;;;;;;4191473;28;20085;-51
2021/07/23 12:01:19;;;;;;;0.10;0.10;;;23.40;66.60;;;;;;4191360;28;20483;-50
2021/07/23 12:03:41;;;;;;;0.47;0.45;;;23.40;66.60;;;;;;4190736;28;20040;-50
2021/07/23 12:06:10;;;;;;;1.23;0.65;;;23.30;66.70;;;;;;4191042;28;20078;-52
2021/07/23 12:08:40;;;;;;;0.00;0.00;;;23.30;66.80;;;;;;4191333;28;20411;-52
2021/07/23 12:11:02;;;;;;;0.00;0.00;;;23.30;66.90;;;;;;4190571;28;20048;-54
2021/07/23 12:13:29;;;;;;;0.15;0.15;;;23.30;66.90;;;;;;4190996;28;20058;-52
2021/07/23 12:15:54;;;;;;;0.10;0.10;;;23.30;67.00;;;;;;4191032;28;20144;-53
2021/07/23 12:18:17;;;;;;;0.10;0.10;;;23.30;67.00;;;;;;4191041;28;20048;-54
2021/07/23 12:20:39;;;;;;;0.00;0.00;;;23.30;67.00;;;;;;4204342;28;20040;-49
2021/07/23 12:23:04;;;;;;;0.00;0.00;;;23.30;67.00;;;;;;4174612;28;20059;-49
2021/07/23 12:25:28;;;;;;;0.05;0.05;;;23.30;67.00;;;;;;4181172;28;20395;-50
2021/07/23 12:28:06;;;;;;;0.43;0.43;;;23.30;67.00;;;;;;4190505;28;20458;-53
2021/07/23 12:30:35;;;;;;;0.10;0.10;;;23.30;67.00;;;;;;4205958;28;20043;-50
2021/07/23 12:33:10;;;;;;;0.00;0.00;;;23.30;67.10;;;;;;4207144;28;20133;-51
2021/07/23 12:35:32;;;;;;;0.47;0.38;;;23.30;67.10;;;;;;4205901;28;20052;-54
2021/07/23 12:38:05;;;;;;;0.05;0.05;;;23.30;67.10;;;;;;4183578;28;20102;-50